CSAV Rio Maipo — V2ER2 — position and weather

sailwx.info

Track history (hours):
 
Tides and Currents Weather Stations Pressure Air Temp Water Temp Dewpoint Dewpoint Depression Visibility Wind Speed Wind Dir Waves Ship Positions

CSAV Rio Maipo

Last reported at 2017-Sep-20 04:48 UTC. Time now 2017-Sep-21 10:34 UTC.
Position N 37°41' E 024°30'.

Length 183 m; draft 7.5 m.

Type: Ship. MMSI: 305523000.

Date/timePositionNaut miles runAvg speedWind from/ knotsBaromVisibWave heightAir tempDewpointWater temp
2017-Sep-20 04:48N 37°41' E 024°30'1611.3
2017-Sep-20 03:25N 37°27' E 024°20'610.9
2017-Sep-20 02:54N 37°23' E 024°16'410.8
2017-Sep-20 02:30N 37°20' E 024°13'510.8
2017-Sep-20 02:00N 37°15' E 024°08'510.9
2017-Sep-20 01:30N 37°11' E 024°04'511.0
2017-Sep-20 01:00N 37°07' E 023°60'611.0
2017-Sep-20 00:30N 37°03' E 023°55'611.3
2017-Sep-20 00:00N 36°58' E 023°51'611.1
2017-Sep-19 23:30N 36°54' E 023°46'611.3
2017-Sep-19 23:00N 36°49' E 023°42'510.8
2017-Sep-19 22:30N 36°45' E 023°38'611.1
2017-Sep-19 22:00N 36°41' E 023°34'611.4
2017-Sep-19 21:30N 36°37' E 023°29'611.4
2017-Sep-19 21:00N 36°32' E 023°25'611.5
2017-Sep-19 20:30N 36°28' E 023°20'511.2
2017-Sep-19 20:00N 36°25' E 023°14'38113.0
2017-Sep-18 14:35N 36°25' E 015°20'213.3
2017-Sep-18 14:27N 36°25' E 015°18'613.7
2017-Sep-18 14:00N 36°25' E 015°10'713.9
2017-Sep-18 13:30N 36°26' E 015°02'913.7
2017-Sep-18 12:51N 36°28' E 014°51'513.9
2017-Sep-18 12:30N 36°29' E 014°45'713.7
2017-Sep-18 11:59N 36°29' E 014°36'713.6
2017-Sep-18 11:28N 36°30' E 014°27'714.2
2017-Sep-18 10:59N 36°31' E 014°19'714.4
2017-Sep-18 10:30N 36°33' E 014°11'714.2
2017-Sep-18 10:00N 36°34' E 014°02'714.2
2017-Sep-18 09:30N 36°37' E 013°54'714.5
2017-Sep-18 09:00N 36°39' E 013°45'714.3
2017-Sep-18 08:30N 36°41' E 013°37'713.9
2017-Sep-18 08:00N 36°43' E 013°29'713.9
2017-Sep-18 07:30N 36°45' E 013°20'713.8
2017-Sep-18 07:00N 36°47' E 013°12'713.4
2017-Sep-18 06:30N 36°50' E 013°04'713.6
2017-Sep-18 06:00N 36°52' E 012°56'713.8
2017-Sep-18 05:29N 36°54' E 012°48'713.7
2017-Sep-18 05:00N 36°56' E 012°40'713.7
2017-Sep-18 04:30N 36°58' E 012°31'713.5
2017-Sep-18 04:00N 36°59' E 012°23'613.2
2017-Sep-18 03:30N 37°01' E 012°15'1412.9
2017-Sep-18 02:25N 37°06' E 011°59'512.8
2017-Sep-18 02:00N 37°08' E 011°53'  
2017-Sep-15 13:06N 36°01' W 005°10'216.3
2017-Sep-15 13:00N 36°01' W 005°12'816.9
2017-Sep-15 12:30N 35°59' W 005°22'3815.6
2017-Sep-15 10:04N 35°54' W 006°09'5713.6
2017-Sep-15 05:52N 36°08' W 007°17'513.2
2017-Sep-15 05:30N 36°09' W 007°23'613.4
2017-Sep-15 05:01N 36°11' W 007°31'713.4
2017-Sep-15 04:30N 36°12' W 007°39'713.2
2017-Sep-15 04:00N 36°14' W 007°47'713.4
2017-Sep-15 03:28N 36°16' W 007°56'613.3
2017-Sep-15 03:00N 36°18' W 008°03'1113.2
2017-Sep-15 02:11N 36°20' W 008°16'213.4
2017-Sep-15 02:01N 36°21' W 008°19'813.2
2017-Sep-15 01:24N 36°23' W 008°28'613.2
2017-Sep-15 00:56N 36°25' W 008°36'613.3
2017-Sep-15 00:30N 36°26' W 008°43'713.5
2017-Sep-14 23:58N 36°27' W 008°51'612.8
2017-Sep-14 23:31N 36°29' W 008°59'1013.0
2017-Sep-14 22:47N 36°31' W 009°10'413.1
2017-Sep-14 22:28N 36°32' W 009°15'613.1
2017-Sep-14 22:01N 36°36' W 009°21'713.8
2017-Sep-14 21:30N 36°41' W 009°26'713.5
2017-Sep-14 21:00N 36°46' W 009°32'713.9
2017-Sep-14 20:30N 36°53' W 009°34'714.0
2017-Sep-14 20:00N 37°00' W 009°35'714.1
2017-Sep-14 19:30N 37°07' W 009°37'714.1
2017-Sep-14 19:00N 37°14' W 009°40'714.3
2017-Sep-14 18:30N 37°20' W 009°43'714.5
2017-Sep-14 18:00N 37°27' W 009°45'714.3
2017-Sep-14 17:30N 37°34' W 009°47'713.9
2017-Sep-14 17:00N 37°41' W 009°49'713.5
2017-Sep-14 16:30N 37°48' W 009°51'713.5
2017-Sep-14 15:59N 37°55' W 009°53'713.6
2017-Sep-14 15:30N 38°01' W 009°55'713.7
2017-Sep-14 15:00N 38°08' W 009°56'713.7
2017-Sep-14 14:30N 38°14' W 009°59'714.2
2017-Sep-14 14:00N 38°21' W 010°01'714.1
2017-Sep-14 13:31N 38°28' W 010°03'714.0
2017-Sep-14 13:00N 38°35' W 010°05'713.9
2017-Sep-14 12:30N 38°42' W 010°06'714.0
2017-Sep-14 12:00N 38°49' W 010°06'714.1
2017-Sep-14 11:30N 38°56' W 010°06'714.4
2017-Sep-14 11:00N 39°03' W 010°07'714.4
2017-Sep-14 10:30N 39°10' W 010°07'713.8
2017-Sep-14 10:00N 39°17' W 010°07'713.8
2017-Sep-14 09:31N 39°24' W 010°07'713.6
2017-Sep-14 09:01N 39°31' W 010°07'714.1
2017-Sep-14 08:29N 39°38' W 010°07'59812.8
2017-Sep-12 09:37N 49°01' W 005°24'5811.1
2017-Sep-12 04:26N 49°31' W 004°08'713.5
2017-Sep-12 03:53N 49°35' W 003°59'513.6
2017-Sep-12 03:31N 49°37' W 003°52'713.7
2017-Sep-12 03:00N 49°41' W 003°43'713.6
2017-Sep-12 02:30N 49°44' W 003°34'713.4
2017-Sep-12 02:00N 49°48' W 003°25'613.0
2017-Sep-12 01:30N 49°51' W 003°16'612.4
2017-Sep-12 01:00N 49°54' W 003°08'611.7
2017-Sep-12 00:30N 49°57' W 002°60'611.2
2017-Sep-12 00:00N 49°59' W 002°52'510.6
2017-Sep-11 23:30N 50°00' W 002°44'610.2
2017-Sep-11 22:55N 50°02' W 002°35'1710.0
2017-Sep-11 21:13N 50°07' W 002°10'210.5
2017-Sep-11 21:00N 50°08' W 002°06'611.1
2017-Sep-11 20:30N 50°09' W 001°58'611.9
2017-Sep-11 20:00N 50°11' W 001°49'612.9
2017-Sep-11 19:30N 50°12' W 001°39'713.8
2017-Sep-11 19:00N 50°14' W 001°29'714.5
2017-Sep-11 18:30N 50°16' W 001°18'815.0
2017-Sep-11 18:00N 50°18' W 001°06'815.2
2017-Sep-11 17:30N 50°20' W 000°55'1014.5
2017-Sep-11 16:47N 50°23' W 000°39'614.1
2017-Sep-11 16:21N 50°24' W 000°30'513.7
2017-Sep-11 16:00N 50°25' W 000°23'613.0
2017-Sep-11 15:30N 50°28' W 000°13'612.2
2017-Sep-11 15:00N 50°30' W 000°04'611.6
2017-Sep-11 14:30N 50°31' E 000°05'510.8
2017-Sep-11 14:00N 50°33' E 000°13'510.0
2017-Sep-11 13:30N 50°34' E 000°20'5 9.5
2017-Sep-11 13:00N 50°36' E 000°28'5 9.2
2017-Sep-11 12:30N 50°37' E 000°35'5 9.4
2017-Sep-11 12:00N 50°40' E 000°40'510.1
2017-Sep-11 11:30N 50°43' E 000°46'510.7
2017-Sep-11 11:00N 50°46' E 000°53'611.5
2017-Sep-11 10:30N 50°50' E 001°00'912.7
2017-Sep-11 09:46N 50°56' E 001°12'313.5
2017-Sep-11 09:30N 50°58' E 001°16'713.5
2017-Sep-11 09:00N 51°02' E 001°24'713.1
2017-Sep-11 08:30N 51°06' E 001°33'612.5
2017-Sep-11 08:00N 51°10' E 001°41'612.0
2017-Sep-11 07:30N 51°15' E 001°46'611.5
2017-Sep-11 07:00N 51°20' E 001°51'611.0
2017-Sep-11 06:30N 51°25' E 001°55'510.4
2017-Sep-11 06:00N 51°29' E 001°60'510.4
2017-Sep-11 05:30N 51°33' E 002°06'510.5
2017-Sep-11 05:00N 51°37' E 002°11'510.6
2017-Sep-11 04:30N 51°41' E 002°17'7712.2
2017-Sep-10 22:13N 52°41' E 003°35'311.4
2017-Sep-10 22:00N 52°43' E 003°37'610.7
2017-Sep-10 21:29N 52°47' E 003°43'510.4
2017-Sep-10 20:59N 52°51' E 003°49'510.1
2017-Sep-10 20:30N 52°55' E 003°54'510.0
2017-Sep-10 20:00N 52°58' E 004°00'5 9.7
2017-Sep-10 19:30N 53°01' E 004°06'510.0
2017-Sep-10 19:00N 53°04' E 004°12'610.0
2017-Sep-10 18:24N 53°08' E 004°20'410.1
2017-Sep-10 18:00N 53°11' E 004°24'710.4
2017-Sep-10 17:20N 53°17' E 004°30'511.2
2017-Sep-10 16:55N 53°22' E 004°33'512.0
2017-Sep-10 16:28N 53°27' E 004°37'511.1
2017-Sep-10 16:00N 53°30' E 004°43'612.3
2017-Sep-10 15:30N 53°32' E 004°53'612.5
2017-Sep-10 15:00N 53°35' E 005°03'1412.6
2017-Sep-10 13:51N 53°39' E 005°26'8011.6
2017-Sep-10 06:58N 53°59' E 007°37'612.5
2017-Sep-10 06:30N 53°55' E 007°44'510.6
2017-Sep-10 06:00N 53°52' E 007°52'714.4
2017-Sep-10 05:30N 53°50' E 008°03'918.7
2017-Sep-10 05:00N 53°44' E 008°15'  
Track history (hours):
 
Tides and Currents Weather Stations Pressure Air Temp Water Temp Dewpoint Dewpoint Depression Visibility Wind Speed Wind Dir Waves Ship Positions

CSAV Rio Maipo

Last reported at 2017-Sep-20 04:48 UTC. Time now 2017-Sep-21 10:34 UTC.
Position N 37°41' E 024°30'.

Length 183 m; draft 7.5 m.

Type: Ship. MMSI: 305523000.

Date/timePositionNaut miles runAvg speedWind from/ knotsBaromVisibWave heightAir tempDewpointWater temp
2017-Sep-20 04:48N 37°41' E 024°30'1611.3
2017-Sep-20 03:25N 37°27' E 024°20'610.9
2017-Sep-20 02:54N 37°23' E 024°16'410.8
2017-Sep-20 02:30N 37°20' E 024°13'510.8
2017-Sep-20 02:00N 37°15' E 024°08'510.9
2017-Sep-20 01:30N 37°11' E 024°04'511.0
2017-Sep-20 01:00N 37°07' E 023°60'611.0
2017-Sep-20 00:30N 37°03' E 023°55'611.3
2017-Sep-20 00:00N 36°58' E 023°51'611.1
2017-Sep-19 23:30N 36°54' E 023°46'611.3
2017-Sep-19 23:00N 36°49' E 023°42'510.8
2017-Sep-19 22:30N 36°45' E 023°38'611.1
2017-Sep-19 22:00N 36°41' E 023°34'611.4
2017-Sep-19 21:30N 36°37' E 023°29'611.4
2017-Sep-19 21:00N 36°32' E 023°25'611.5
2017-Sep-19 20:30N 36°28' E 023°20'511.2
2017-Sep-19 20:00N 36°25' E 023°14'38113.0
2017-Sep-18 14:35N 36°25' E 015°20'213.3
2017-Sep-18 14:27N 36°25' E 015°18'613.7
2017-Sep-18 14:00N 36°25' E 015°10'713.9
2017-Sep-18 13:30N 36°26' E 015°02'913.7
2017-Sep-18 12:51N 36°28' E 014°51'513.9
2017-Sep-18 12:30N 36°29' E 014°45'713.7
2017-Sep-18 11:59N 36°29' E 014°36'713.6
2017-Sep-18 11:28N 36°30' E 014°27'714.2
2017-Sep-18 10:59N 36°31' E 014°19'714.4
2017-Sep-18 10:30N 36°33' E 014°11'714.2
2017-Sep-18 10:00N 36°34' E 014°02'714.2
2017-Sep-18 09:30N 36°37' E 013°54'714.5
2017-Sep-18 09:00N 36°39' E 013°45'714.3
2017-Sep-18 08:30N 36°41' E 013°37'713.9
2017-Sep-18 08:00N 36°43' E 013°29'713.9
2017-Sep-18 07:30N 36°45' E 013°20'713.8
2017-Sep-18 07:00N 36°47' E 013°12'713.4
2017-Sep-18 06:30N 36°50' E 013°04'713.6
2017-Sep-18 06:00N 36°52' E 012°56'713.8
2017-Sep-18 05:29N 36°54' E 012°48'713.7
2017-Sep-18 05:00N 36°56' E 012°40'713.7
2017-Sep-18 04:30N 36°58' E 012°31'713.5
2017-Sep-18 04:00N 36°59' E 012°23'613.2
2017-Sep-18 03:30N 37°01' E 012°15'1412.9
2017-Sep-18 02:25N 37°06' E 011°59'512.8
2017-Sep-18 02:00N 37°08' E 011°53'  
2017-Sep-15 13:06N 36°01' W 005°10'216.3
2017-Sep-15 13:00N 36°01' W 005°12'816.9
2017-Sep-15 12:30N 35°59' W 005°22'3815.6
2017-Sep-15 10:04N 35°54' W 006°09'5713.6
2017-Sep-15 05:52N 36°08' W 007°17'513.2
2017-Sep-15 05:30N 36°09' W 007°23'613.4
2017-Sep-15 05:01N 36°11' W 007°31'713.4
2017-Sep-15 04:30N 36°12' W 007°39'713.2
2017-Sep-15 04:00N 36°14' W 007°47'713.4
2017-Sep-15 03:28N 36°16' W 007°56'613.3
2017-Sep-15 03:00N 36°18' W 008°03'1113.2
2017-Sep-15 02:11N 36°20' W 008°16'213.4
2017-Sep-15 02:01N 36°21' W 008°19'813.2
2017-Sep-15 01:24N 36°23' W 008°28'613.2
2017-Sep-15 00:56N 36°25' W 008°36'613.3
2017-Sep-15 00:30N 36°26' W 008°43'713.5
2017-Sep-14 23:58N 36°27' W 008°51'612.8
2017-Sep-14 23:31N 36°29' W 008°59'1013.0
2017-Sep-14 22:47N 36°31' W 009°10'413.1
2017-Sep-14 22:28N 36°32' W 009°15'613.1
2017-Sep-14 22:01N 36°36' W 009°21'713.8
2017-Sep-14 21:30N 36°41' W 009°26'713.5
2017-Sep-14 21:00N 36°46' W 009°32'713.9
2017-Sep-14 20:30N 36°53' W 009°34'714.0
2017-Sep-14 20:00N 37°00' W 009°35'714.1
2017-Sep-14 19:30N 37°07' W 009°37'714.1
2017-Sep-14 19:00N 37°14' W 009°40'714.3
2017-Sep-14 18:30N 37°20' W 009°43'714.5
2017-Sep-14 18:00N 37°27' W 009°45'714.3
2017-Sep-14 17:30N 37°34' W 009°47'713.9
2017-Sep-14 17:00N 37°41' W 009°49'713.5
2017-Sep-14 16:30N 37°48' W 009°51'713.5
2017-Sep-14 15:59N 37°55' W 009°53'713.6
2017-Sep-14 15:30N 38°01' W 009°55'713.7
2017-Sep-14 15:00N 38°08' W 009°56'713.7
2017-Sep-14 14:30N 38°14' W 009°59'714.2
2017-Sep-14 14:00N 38°21' W 010°01'714.1
2017-Sep-14 13:31N 38°28' W 010°03'714.0
2017-Sep-14 13:00N 38°35' W 010°05'713.9
2017-Sep-14 12:30N 38°42' W 010°06'714.0
2017-Sep-14 12:00N 38°49' W 010°06'714.1
2017-Sep-14 11:30N 38°56' W 010°06'714.4
2017-Sep-14 11:00N 39°03' W 010°07'714.4
2017-Sep-14 10:30N 39°10' W 010°07'713.8
2017-Sep-14 10:00N 39°17' W 010°07'713.8
2017-Sep-14 09:31N 39°24' W 010°07'713.6
2017-Sep-14 09:01N 39°31' W 010°07'714.1
2017-Sep-14 08:29N 39°38' W 010°07'59812.8
2017-Sep-12 09:37N 49°01' W 005°24'5811.1
2017-Sep-12 04:26N 49°31' W 004°08'713.5
2017-Sep-12 03:53N 49°35' W 003°59'513.6
2017-Sep-12 03:31N 49°37' W 003°52'713.7
2017-Sep-12 03:00N 49°41' W 003°43'713.6
2017-Sep-12 02:30N 49°44' W 003°34'713.4
2017-Sep-12 02:00N 49°48' W 003°25'613.0
2017-Sep-12 01:30N 49°51' W 003°16'612.4
2017-Sep-12 01:00N 49°54' W 003°08'611.7
2017-Sep-12 00:30N 49°57' W 002°60'611.2
2017-Sep-12 00:00N 49°59' W 002°52'510.6
2017-Sep-11 23:30N 50°00' W 002°44'610.2
2017-Sep-11 22:55N 50°02' W 002°35'1710.0
2017-Sep-11 21:13N 50°07' W 002°10'210.5
2017-Sep-11 21:00N 50°08' W 002°06'611.1
2017-Sep-11 20:30N 50°09' W 001°58'611.9
2017-Sep-11 20:00N 50°11' W 001°49'612.9
2017-Sep-11 19:30N 50°12' W 001°39'713.8
2017-Sep-11 19:00N 50°14' W 001°29'714.5
2017-Sep-11 18:30N 50°16' W 001°18'815.0
2017-Sep-11 18:00N 50°18' W 001°06'815.2
2017-Sep-11 17:30N 50°20' W 000°55'1014.5
2017-Sep-11 16:47N 50°23' W 000°39'614.1
2017-Sep-11 16:21N 50°24' W 000°30'513.7
2017-Sep-11 16:00N 50°25' W 000°23'613.0
2017-Sep-11 15:30N 50°28' W 000°13'612.2
2017-Sep-11 15:00N 50°30' W 000°04'611.6
2017-Sep-11 14:30N 50°31' E 000°05'510.8
2017-Sep-11 14:00N 50°33' E 000°13'510.0
2017-Sep-11 13:30N 50°34' E 000°20'5 9.5
2017-Sep-11 13:00N 50°36' E 000°28'5 9.2
2017-Sep-11 12:30N 50°37' E 000°35'5 9.4
2017-Sep-11 12:00N 50°40' E 000°40'510.1
2017-Sep-11 11:30N 50°43' E 000°46'510.7
2017-Sep-11 11:00N 50°46' E 000°53'611.5
2017-Sep-11 10:30N 50°50' E 001°00'912.7
2017-Sep-11 09:46N 50°56' E 001°12'313.5
2017-Sep-11 09:30N 50°58' E 001°16'713.5
2017-Sep-11 09:00N 51°02' E 001°24'713.1
2017-Sep-11 08:30N 51°06' E 001°33'612.5
2017-Sep-11 08:00N 51°10' E 001°41'612.0
2017-Sep-11 07:30N 51°15' E 001°46'611.5
2017-Sep-11 07:00N 51°20' E 001°51'611.0
2017-Sep-11 06:30N 51°25' E 001°55'510.4
2017-Sep-11 06:00N 51°29' E 001°60'510.4
2017-Sep-11 05:30N 51°33' E 002°06'510.5
2017-Sep-11 05:00N 51°37' E 002°11'510.6
2017-Sep-11 04:30N 51°41' E 002°17'7712.2
2017-Sep-10 22:13N 52°41' E 003°35'311.4
2017-Sep-10 22:00N 52°43' E 003°37'610.7
2017-Sep-10 21:29N 52°47' E 003°43'510.4
2017-Sep-10 20:59N 52°51' E 003°49'510.1
2017-Sep-10 20:30N 52°55' E 003°54'510.0
2017-Sep-10 20:00N 52°58' E 004°00'5 9.7
2017-Sep-10 19:30N 53°01' E 004°06'510.0
2017-Sep-10 19:00N 53°04' E 004°12'610.0
2017-Sep-10 18:24N 53°08' E 004°20'410.1
2017-Sep-10 18:00N 53°11' E 004°24'710.4
2017-Sep-10 17:20N 53°17' E 004°30'511.2
2017-Sep-10 16:55N 53°22' E 004°33'512.0
2017-Sep-10 16:28N 53°27' E 004°37'511.1
2017-Sep-10 16:00N 53°30' E 004°43'612.3
2017-Sep-10 15:30N 53°32' E 004°53'612.5
2017-Sep-10 15:00N 53°35' E 005°03'1412.6
2017-Sep-10 13:51N 53°39' E 005°26'8011.6
2017-Sep-10 06:58N 53°59' E 007°37'612.5
2017-Sep-10 06:30N 53°55' E 007°44'510.6
2017-Sep-10 06:00N 53°52' E 007°52'714.4
2017-Sep-10 05:30N 53°50' E 008°03'918.7
2017-Sep-10 05:00N 53°44' E 008°15'  

Dump ship's entire track history